Time;durP1;ratioP1;P1;durP2;ratioP2;P2;SDS_P1;SDS_P2;PMS_P1;PMS_P2;Temp;Humidity;BMP_temperature;BMP_pressure;BME280_temperature;BME280_humidity;BME280_pressure;Samples;Min_cycle;Max_cycle;Signal;HPM_P1;HPM_P2
2022/04/09 00:01:11;;;;;;;5.07;1.97;;;17.50;60.80;;;;;;5030981;28;20962;-67
2022/04/09 00:03:38;;;;;;;5.10;1.70;;;17.40;60.40;;;;;;5030704;28;20583;-67
2022/04/09 00:06:05;;;;;;;4.03;1.37;;;17.40;60.20;;;;;;5030505;28;20944;-68
2022/04/09 00:08:32;;;;;;;6.90;1.80;;;17.30;60.20;;;;;;5030365;28;20950;-68
2022/04/09 00:10:59;;;;;;;5.80;1.70;;;17.30;60.60;;;;;;5030411;28;20947;-67
2022/04/09 00:13:26;;;;;;;4.77;1.70;;;17.30;60.80;;;;;;5030477;28;20454;-67
2022/04/09 00:15:53;;;;;;;6.50;1.70;;;17.30;61.10;;;;;;5030281;28;20462;-67
2022/04/09 00:18:21;;;;;;;5.33;1.70;;;17.20;61.00;;;;;;5029942;28;20464;-68
2022/04/09 00:20:49;;;;;;;5.83;1.23;;;17.10;61.00;;;;;;5029994;28;20804;-67
2022/04/09 00:23:17;;;;;;;4.20;1.50;;;17.00;61.30;;;;;;5030316;28;20545;-67
2022/04/09 00:25:44;;;;;;;4.47;1.80;;;16.90;61.80;;;;;;5030316;28;20450;-67
2022/04/09 00:28:11;;;;;;;4.70;2.00;;;17.00;61.90;;;;;;5030214;28;20479;-68
2022/04/09 00:30:38;;;;;;;5.70;1.40;;;17.00;61.90;;;;;;5030052;28;20458;-68
2022/04/09 00:33:05;;;;;;;4.33;1.57;;;17.00;62.00;;;;;;5030026;28;20561;-68
2022/04/09 00:35:34;;;;;;;5.20;1.60;;;17.10;62.30;;;;;;5029982;28;20458;-67
2022/04/09 00:38:01;;;;;;;3.90;1.50;;;16.90;62.50;;;;;;5029678;28;21029;-66
2022/04/09 00:40:28;;;;;;;4.93;1.63;;;16.80;62.60;;;;;;5029622;28;20508;-68
2022/04/09 00:42:55;;;;;;;3.60;1.37;;;16.80;63.00;;;;;;5030074;28;20864;-67
2022/04/09 00:45:22;;;;;;;3.43;1.30;;;16.90;63.40;;;;;;5029803;28;20567;-68
2022/04/09 00:47:50;;;;;;;8.37;1.60;;;16.90;64.20;;;;;;5029639;28;20471;-68
2022/04/09 00:50:17;;;;;;;5.30;1.37;;;17.00;63.20;;;;;;5029938;28;20463;-68
2022/04/09 00:52:48;;;;;;;5.20;1.70;;;16.90;63.20;;;;;;5029783;28;20455;-67
2022/04/09 00:55:19;;;;;;;3.70;1.67;;;16.90;63.70;;;;;;5029757;28;20478;-68
2022/04/09 00:57:50;;;;;;;4.60;1.80;;;16.90;64.00;;;;;;5029309;28;20477;-67
2022/04/09 01:00:19;;;;;;;4.40;1.40;;;16.90;64.30;;;;;;5029617;28;20459;-67
2022/04/09 01:02:47;;;;;;;4.10;1.60;;;16.90;64.40;;;;;;5029166;28;20577;-68
2022/04/09 01:05:14;;;;;;;4.77;1.80;;;16.90;64.80;;;;;;5029681;28;20494;-68
2022/04/09 01:07:41;;;;;;;7.47;2.10;;;16.90;65.00;;;;;;5029643;28;20624;-68
2022/04/09 01:10:10;;;;;;;5.80;2.07;;;17.00;65.40;;;;;;5029573;28;20459;-68
2022/04/09 01:12:38;;;;;;;7.87;2.20;;;17.10;65.90;;;;;;5029326;28;20812;-68
2022/04/09 01:15:07;;;;;;;6.57;1.93;;;17.20;66.40;;;;;;5029567;28;20454;-68
2022/04/09 01:17:36;;;;;;;6.30;2.10;;;17.20;66.50;;;;;;5029842;28;20525;-67
2022/04/09 01:20:16;;;;;;;7.23;2.40;;;17.10;66.70;;;;;;5029514;28;20458;-67
2022/04/09 01:22:44;;;;;;;5.07;1.90;;;17.10;67.20;;;;;;5029590;28;20456;-68
2022/04/09 01:25:11;;;;;;;6.33;2.90;;;17.10;67.30;;;;;;5029138;28;20490;-67
2022/04/09 01:27:39;;;;;;;6.40;2.70;;;17.10;67.60;;;;;;5029367;28;20479;-67
2022/04/09 01:30:07;;;;;;;5.67;2.57;;;16.90;68.10;;;;;;5029515;28;20453;-68
2022/04/09 01:32:34;;;;;;;4.67;2.23;;;16.70;68.50;;;;;;5029390;28;20451;-67
2022/04/09 01:35:02;;;;;;;7.30;2.63;;;16.70;69.20;;;;;;5029362;28;20447;-67
2022/04/09 01:37:30;;;;;;;5.70;2.33;;;16.70;69.30;;;;;;5029227;28;20478;-67
2022/04/09 01:39:58;;;;;;;6.07;2.37;;;16.70;69.80;;;;;;5029319;28;20558;-67
2022/04/09 01:42:26;;;;;;;4.10;1.80;;;16.50;70.60;;;;;;5029160;28;20936;-68
2022/04/09 01:44:53;;;;;;;5.83;2.53;;;16.50;71.20;;;;;;5029207;28;20490;-68
2022/04/09 01:47:20;;;;;;;6.60;3.20;;;16.50;71.20;;;;;;5028933;28;20475;-68
2022/04/09 01:49:47;;;;;;;7.23;2.60;;;16.50;71.40;;;;;;5028842;28;20478;-68
2022/04/09 01:52:14;;;;;;;5.33;2.00;;;16.30;72.50;;;;;;5031704;28;20939;-68
2022/04/09 01:54:41;;;;;;;5.50;2.50;;;16.30;72.80;;;;;;5032880;28;20446;-68
2022/04/09 01:57:10;;;;;;;8.53;3.10;;;16.40;72.70;;;;;;5032376;28;20466;-68
2022/04/09 01:59:37;;;;;;;7.30;2.37;;;16.30;72.70;;;;;;5032828;28;20935;-68
2022/04/09 02:02:05;;;;;;;6.33;2.37;;;16.30;72.90;;;;;;5032889;28;20482;-68
2022/04/09 02:04:32;;;;;;;6.40;2.63;;;16.20;73.80;;;;;;5032649;28;20515;-67
2022/04/09 02:06:59;;;;;;;5.53;2.20;;;16.20;74.10;;;;;;5032547;28;20477;-68
2022/04/09 02:09:27;;;;;;;6.23;2.17;;;16.00;74.80;;;;;;5032384;28;20458;-67
2022/04/09 02:11:54;;;;;;;5.47;2.40;;;16.10;75.20;;;;;;5032620;28;20512;-67
2022/04/09 02:14:22;;;;;;;5.33;2.23;;;16.00;75.70;;;;;;5032638;28;20466;-67
2022/04/09 02:16:49;;;;;;;7.33;2.40;;;16.10;75.70;;;;;;5032577;28;20447;-67
2022/04/09 02:19:17;;;;;;;5.20;2.30;;;16.00;75.90;;;;;;5032566;28;20462;-67
2022/04/09 02:21:44;;;;;;;6.90;2.83;;;16.00;76.50;;;;;;5032536;28;20541;-67
2022/04/09 02:24:11;;;;;;;5.27;2.23;;;16.10;76.50;;;;;;5032268;28;20470;-67
2022/04/09 02:26:38;;;;;;;6.43;2.13;;;16.00;76.40;;;;;;5032258;28;20811;-68
2022/04/09 02:29:05;;;;;;;5.47;1.70;;;16.10;76.30;;;;;;5032595;28;20872;-68
2022/04/09 02:31:34;;;;;;;4.70;2.37;;;16.10;76.30;;;;;;5031991;28;20458;-67
2022/04/09 02:34:01;;;;;;;8.00;2.13;;;16.00;76.80;;;;;;5032472;28;20474;-67
2022/04/09 02:36:29;;;;;;;5.83;2.23;;;16.00;76.90;;;;;;5031980;28;20455;-67
2022/04/09 02:38:56;;;;;;;9.37;2.33;;;16.00;77.10;;;;;;5032296;28;20451;-67
2022/04/09 02:41:23;;;;;;;4.43;2.20;;;16.00;77.50;;;;;;5032258;28;20454;-68
2022/04/09 02:43:50;;;;;;;6.63;2.60;;;16.00;77.80;;;;;;5032023;28;20478;-67
2022/04/09 02:46:17;;;;;;;4.47;2.43;;;16.00;78.10;;;;;;5031857;28;20497;-67
2022/04/09 02:48:46;;;;;;;5.33;2.70;;;16.00;78.30;;;;;;5031632;28;20493;-67
2022/04/09 02:51:13;;;;;;;4.47;2.30;;;16.00;79.30;;;;;;5031831;28;20459;-67
2022/04/09 02:53:41;;;;;;;9.60;3.00;;;15.90;79.10;;;;;;5031995;28;20943;-67
2022/04/09 02:56:08;;;;;;;8.63;3.33;;;15.90;80.00;;;;;;5031897;28;20483;-67
2022/04/09 02:58:35;;;;;;;6.80;2.90;;;15.80;81.00;;;;;;5031841;28;20458;-67
2022/04/09 03:01:02;;;;;;;7.20;3.07;;;15.70;81.80;;;;;;5031370;28;20455;-68
2022/04/09 03:03:30;;;;;;;5.60;2.80;;;15.70;81.80;;;;;;5030859;28;20792;-67
2022/04/09 03:05:58;;;;;;;5.50;2.53;;;15.70;81.80;;;;;;5031593;28;20491;-69
2022/04/09 03:08:25;;;;;;;5.40;2.57;;;15.80;82.10;;;;;;5031622;28;20542;-67
2022/04/09 03:10:53;;;;;;;6.47;3.03;;;15.80;82.60;;;;;;5031213;28;20541;-67
2022/04/09 03:13:20;;;;;;;7.93;2.77;;;15.60;83.10;;;;;;5031154;28;20457;-67
2022/04/09 03:15:48;;;;;;;4.90;2.77;;;15.40;84.40;;;;;;5031302;28;20497;-66
2022/04/09 03:18:15;;;;;;;7.07;3.23;;;15.20;86.20;;;;;;5031348;28;20463;-67
2022/04/09 03:20:42;;;;;;;6.40;3.43;;;15.20;87.10;;;;;;5031485;28;20936;-67
2022/04/09 03:23:11;;;;;;;6.67;3.53;;;15.30;87.40;;;;;;5031035;28;20454;-67
2022/04/09 03:25:38;;;;;;;8.00;3.20;;;15.40;87.20;;;;;;5031293;28;20486;-67
2022/04/09 03:28:05;;;;;;;6.10;3.00;;;15.40;87.10;;;;;;5030726;28;20478;-68
2022/04/09 03:30:32;;;;;;;7.23;2.60;;;15.30;88.00;;;;;;5031225;28;20454;-67
2022/04/09 03:33:00;;;;;;;5.70;2.90;;;15.30;89.00;;;;;;5031256;28;20458;-67
2022/04/09 03:35:27;;;;;;;6.73;3.10;;;15.20;89.40;;;;;;5031167;28;20466;-67
2022/04/09 03:37:56;;;;;;;8.93;3.03;;;15.30;89.50;;;;;;5030983;28;21014;-68
2022/04/09 03:40:24;;;;;;;6.87;3.00;;;15.30;89.50;;;;;;5031232;28;20558;-68
2022/04/09 03:42:51;;;;;;;5.33;2.90;;;15.20;90.20;;;;;;5030692;28;20454;-68
2022/04/09 03:45:19;;;;;;;7.20;3.13;;;15.20;90.50;;;;;;5030549;28;20501;-68
2022/04/09 03:47:46;;;;;;;6.17;3.20;;;15.30;90.30;;;;;;5030693;28;20801;-68
2022/04/09 03:50:14;;;;;;;6.17;2.87;;;15.40;90.60;;;;;;5030844;28;20931;-67
2022/04/09 03:52:41;;;;;;;7.50;4.20;;;15.40;90.40;;;;;;5030757;28;20481;-68
2022/04/09 03:55:09;;;;;;;8.73;3.10;;;15.10;91.00;;;;;;5030201;28;20467;-69
2022/04/09 03:57:38;;;;;;;5.90;3.40;;;15.00;91.60;;;;;;5030460;28;20932;-68
2022/04/09 04:00:06;;;;;;;6.83;4.57;;;15.10;92.00;;;;;;5030699;28;20457;-68
2022/04/09 04:02:33;;;;;;;8.00;4.40;;;15.00;92.30;;;;;;5030887;28;20447;-68
2022/04/09 04:05:02;;;;;;;7.60;3.50;;;14.80;92.90;;;;;;5030641;28;20505;-69
2022/04/09 04:07:30;;;;;;;7.03;3.10;;;14.70;94.10;;;;;;5030231;28;20455;-71
2022/04/09 04:10:01;;;;;;;7.93;3.97;;;14.70;94.40;;;;;;5030274;28;20474;-67
2022/04/09 04:12:28;;;;;;;7.20;3.33;;;14.80;94.40;;;;;;5030430;28;20451;-70
2022/04/09 04:14:57;;;;;;;6.97;3.70;;;14.50;95.30;;;;;;5029678;28;20538;-71
2022/04/09 04:17:24;;;;;;;8.73;4.17;;;14.50;96.30;;;;;;5029872;28;20486;-69
2022/04/09 04:19:51;;;;;;;6.60;3.30;;;14.60;96.70;;;;;;5029913;28;20517;-68
2022/04/09 04:22:18;;;;;;;6.87;3.63;;;14.50;96.80;;;;;;5030220;28;20450;-69
2022/04/09 04:24:45;;;;;;;9.73;4.60;;;14.50;97.70;;;;;;5029877;28;20462;-70
2022/04/09 04:27:12;;;;;;;6.90;4.20;;;14.20;98.80;;;;;;5030186;28;20470;-69
2022/04/09 04:29:39;;;;;;;12.07;4.00;;;14.10;99.90;;;;;;5029870;28;20457;-68
2022/04/09 04:32:09;;;;;;;8.40;3.97;;;14.30;99.90;;;;;;5029940;28;20451;-68
2022/04/09 04:34:36;;;;;;;7.50;3.60;;;14.50;99.90;;;;;;5029685;28;20919;-69
2022/04/09 04:37:03;;;;;;;8.90;5.03;;;14.50;99.80;;;;;;5029656;28;20463;-66
2022/04/09 04:39:31;;;;;;;10.03;3.57;;;14.60;99.80;;;;;;5029736;28;20509;-67
2022/04/09 04:41:58;;;;;;;9.23;4.07;;;14.80;99.80;;;;;;5029973;28;20459;-66
2022/04/09 04:44:25;;;;;;;7.67;4.07;;;14.80;99.20;;;;;;5029965;28;20481;-68
2022/04/09 04:46:52;;;;;;;7.73;3.90;;;14.90;98.70;;;;;;5029838;28;20543;-70
2022/04/09 04:49:20;;;;;;;6.10;3.40;;;14.90;98.90;;;;;;5029527;28;20552;-67
2022/04/09 04:51:47;;;;;;;11.60;3.53;;;15.00;98.60;;;;;;5029788;28;20450;-67
2022/04/09 04:54:14;;;;;;;6.90;3.70;;;15.00;98.80;;;;;;5029586;28;20454;-66
2022/04/09 04:56:41;;;;;;;10.27;3.70;;;15.00;98.30;;;;;;5029676;28;20472;-66
2022/04/09 04:59:09;;;;;;;12.20;3.53;;;15.00;98.30;;;;;;5029878;28;20852;-73
2022/04/09 05:01:37;;;;;;;7.03;3.50;;;15.00;98.10;;;;;;5029886;28;20454;-65
2022/04/09 05:04:05;;;;;;;6.70;3.77;;;15.20;98.00;;;;;;5029356;28;20550;-67
2022/04/09 05:06:34;;;;;;;10.83;3.70;;;15.20;97.50;;;;;;5029194;28;20513;-65
2022/04/09 05:09:01;;;;;;;6.10;2.93;;;15.20;97.90;;;;;;5029866;28;20450;-73
2022/04/09 05:11:28;;;;;;;7.37;3.40;;;15.30;98.10;;;;;;5029793;28;20949;-78
2022/04/09 05:13:55;;;;;;;6.93;2.83;;;15.40;99.20;;;;;;5029983;28;20561;-73
2022/04/09 05:16:22;;;;;;;6.33;3.27;;;15.90;99.00;;;;;;5029324;28;20467;-73
2022/04/09 05:18:49;;;;;;;6.33;3.10;;;16.30;97.70;;;;;;5029577;28;20553;-74
2022/04/09 05:21:16;;;;;;;5.20;2.70;;;16.60;96.40;;;;;;5029394;28;20455;-74
2022/04/09 05:23:47;;;;;;;10.20;3.20;;;16.70;95.80;;;;;;5029629;28;20461;-75
2022/04/09 05:26:14;;;;;;;8.17;4.07;;;16.60;95.40;;;;;;5032410;28;21259;-71
2022/04/09 05:28:41;;;;;;;6.33;3.20;;;16.70;95.20;;;;;;5033548;28;20544;-79
2022/04/09 05:31:09;;;;;;;7.43;2.87;;;16.80;95.00;;;;;;5033741;28;20455;-81
2022/04/09 05:33:36;;;;;;;5.70;2.93;;;16.80;94.60;;;;;;5035300;28;20504;-80
2022/04/09 05:36:03;;;;;;;6.30;2.33;;;16.90;94.20;;;;;;5033749;28;20514;-74
2022/04/09 05:38:30;;;;;;;11.10;3.60;;;17.00;93.70;;;;;;5033488;28;20482;-75
2022/04/09 05:40:59;;;;;;;6.37;3.07;;;17.20;93.40;;;;;;5033482;28;20973;-73
2022/04/09 05:43:26;;;;;;;6.00;3.00;;;17.40;93.00;;;;;;5033478;28;20454;-75
2022/04/09 05:45:53;;;;;;;7.47;3.27;;;17.50;92.60;;;;;;5033282;28;20494;-76
2022/04/09 05:48:20;;;;;;;8.30;3.57;;;17.70;92.00;;;;;;5032801;28;20513;-74
2022/04/09 05:50:47;;;;;;;9.13;3.60;;;17.80;91.70;;;;;;5033093;28;20465;-69
2022/04/09 05:53:14;;;;;;;7.60;3.37;;;18.00;91.70;;;;;;5033204;28;20455;-75
2022/04/09 05:55:41;;;;;;;6.03;3.20;;;18.10;90.70;;;;;;5033116;28;20443;-73
2022/04/09 05:58:11;;;;;;;9.50;3.20;;;17.90;90.70;;;;;;5032746;28;20474;-75
2022/04/09 06:00:38;;;;;;;9.07;3.40;;;18.10;90.50;;;;;;5032941;28;20508;-73
2022/04/09 06:03:06;;;;;;;9.77;3.50;;;18.20;90.20;;;;;;5032641;28;20555;-73
2022/04/09 06:05:34;;;;;;;6.53;3.00;;;18.30;88.90;;;;;;5032581;28;20497;-73
2022/04/09 06:08:01;;;;;;;9.00;3.07;;;18.20;87.80;;;;;;5032746;28;20471;-75
2022/04/09 06:10:28;;;;;;;4.67;2.53;;;18.30;88.30;;;;;;5033011;28;20466;-77
2022/04/09 06:12:55;;;;;;;6.70;3.00;;;18.30;88.50;;;;;;5033100;28;20447;-74
2022/04/09 06:15:24;;;;;;;7.40;3.00;;;18.40;87.90;;;;;;5032613;28;20773;-76
2022/04/09 06:17:51;;;;;;;9.83;3.93;;;18.50;87.20;;;;;;5033006;28;20486;-78
2022/04/09 06:20:18;;;;;;;7.43;3.40;;;18.50;87.10;;;;;;5033046;28;20955;-77
2022/04/09 06:22:45;;;;;;;6.70;3.10;;;18.60;86.60;;;;;;5032761;28;20465;-75
2022/04/09 06:25:12;;;;;;;9.00;3.50;;;18.70;86.20;;;;;;5032157;28;20458;-73
2022/04/09 06:27:41;;;;;;;8.10;3.50;;;18.70;86.40;;;;;;5032219;28;20501;-74
2022/04/09 06:30:09;;;;;;;7.77;3.90;;;18.50;86.20;;;;;;5032421;28;20960;-75
2022/04/09 06:32:38;;;;;;;11.17;4.50;;;18.50;86.60;;;;;;5032300;28;20455;-77
2022/04/09 06:35:07;;;;;;;7.23;3.10;;;18.50;86.60;;;;;;5032448;28;20450;-77
2022/04/09 06:37:39;;;;;;;7.23;3.40;;;18.70;85.70;;;;;;5031514;28;20494;-77
2022/04/09 06:40:07;;;;;;;11.43;3.40;;;18.70;85.90;;;;;;5031877;28;20459;-76
2022/04/09 06:42:34;;;;;;;9.70;3.90;;;18.80;85.90;;;;;;5032136;28;20459;-77
2022/04/09 06:45:02;;;;;;;5.97;3.20;;;18.90;85.90;;;;;;5031938;28;20454;-74
2022/04/09 06:47:29;;;;;;;6.90;3.37;;;18.90;85.40;;;;;;5031836;28;20556;-69
2022/04/09 06:49:58;;;;;;;12.03;4.00;;;19.00;85.00;;;;;;5031114;28;21020;-67
2022/04/09 06:52:25;;;;;;;6.30;3.17;;;19.10;84.20;;;;;;5031530;28;20913;-70
2022/04/09 06:54:55;;;;;;;7.33;3.60;;;19.30;84.50;;;;;;5031728;28;20454;-68
2022/04/09 06:57:22;;;;;;;12.40;4.20;;;19.30;85.40;;;;;;5031712;28;20561;-69
2022/04/09 06:59:49;;;;;;;12.80;6.10;;;19.20;85.50;;;;;;5031668;28;20923;-68
2022/04/09 07:02:16;;;;;;;14.20;6.43;;;19.20;85.80;;;;;;5031284;28;20459;-69
2022/04/09 07:04:44;;;;;;;10.47;4.30;;;19.10;86.20;;;;;;5031606;28;20509;-67
2022/04/09 07:07:13;;;;;;;9.97;3.90;;;19.20;86.30;;;;;;5031412;28;20504;-68
2022/04/09 07:09:40;;;;;;;7.63;3.50;;;19.20;86.10;;;;;;5031516;28;20455;-69
2022/04/09 07:12:08;;;;;;;9.00;4.17;;;19.40;85.90;;;;;;5031506;28;20481;-69
2022/04/09 07:14:35;;;;;;;8.80;3.70;;;19.50;85.30;;;;;;5031618;28;20451;-68
2022/04/09 07:17:03;;;;;;;7.97;3.20;;;19.60;83.60;;;;;;5031347;28;20493;-68
2022/04/09 07:19:30;;;;;;;6.20;3.30;;;19.60;83.10;;;;;;5031001;28;20513;-69
2022/04/09 07:21:58;;;;;;;6.93;3.60;;;19.60;81.90;;;;;;5031024;28;20955;-68
2022/04/09 07:24:27;;;;;;;8.60;2.90;;;19.70;81.80;;;;;;5031215;28;20451;-69
2022/04/09 07:26:54;;;;;;;7.90;4.20;;;19.70;81.70;;;;;;5030992;28;20501;-68
2022/04/09 07:29:22;;;;;;;14.20;8.13;;;19.70;81.90;;;;;;5030994;28;20630;-70
2022/04/09 07:31:49;;;;;;;8.30;4.30;;;19.90;81.90;;;;;;5030984;28;20447;-70
2022/04/09 07:34:16;;;;;;;11.53;4.60;;;19.80;81.00;;;;;;5031193;28;20474;-68
2022/04/09 07:36:43;;;;;;;10.50;3.87;;;19.70;81.80;;;;;;5031034;28;21301;-68
2022/04/09 07:39:10;;;;;;;8.47;3.87;;;19.70;80.80;;;;;;5030954;28;20852;-68
2022/04/09 07:41:38;;;;;;;11.93;3.50;;;19.70;80.90;;;;;;5030911;28;20458;-67
2022/04/09 07:44:06;;;;;;;6.80;3.77;;;19.60;80.50;;;;;;5030878;28;20447;-67
2022/04/09 07:46:34;;;;;;;7.13;3.83;;;19.60;79.70;;;;;;5030315;28;20490;-67
2022/04/09 07:49:02;;;;;;;7.50;4.03;;;19.60;80.70;;;;;;5030606;28;20911;-67
2022/04/09 07:51:29;;;;;;;8.30;3.80;;;19.80;80.10;;;;;;5030768;28;20454;-67
2022/04/09 07:53:56;;;;;;;8.97;3.73;;;20.10;77.70;;;;;;5030771;28;20458;-69
2022/04/09 07:56:23;;;;;;;7.40;3.10;;;20.20;77.70;;;;;;5030646;28;21022;-68
2022/04/09 07:58:52;;;;;;;8.20;3.50;;;20.30;77.70;;;;;;5030601;28;20450;-68
2022/04/09 08:01:19;;;;;;;17.53;8.10;;;20.70;76.80;;;;;;5030477;28;20557;-68
2022/04/09 08:03:46;;;;;;;9.30;4.60;;;21.00;74.30;;;;;;5030790;28;20510;-68
2022/04/09 08:06:13;;;;;;;6.43;2.93;;;21.20;73.00;;;;;;5030268;28;20522;-67
2022/04/09 08:08:46;;;;;;;6.33;2.70;;;21.30;73.00;;;;;;5030333;28;20951;-68
2022/04/09 08:11:13;;;;;;;9.67;3.80;;;21.40;72.10;;;;;;5030205;28;20465;-68
2022/04/09 08:13:40;;;;;;;5.50;3.40;;;21.60;71.50;;;;;;5029815;28;20807;-69
2022/04/09 08:16:08;;;;;;;9.23;3.10;;;21.40;70.90;;;;;;5029939;28;20861;-68
2022/04/09 08:18:37;;;;;;;8.60;4.10;;;21.30;70.00;;;;;;5030078;28;20455;-67
2022/04/09 08:21:04;;;;;;;7.07;3.57;;;21.30;70.30;;;;;;5030274;28;20926;-68
2022/04/09 08:23:32;;;;;;;9.23;3.90;;;21.20;69.80;;;;;;5030232;28;20908;-68
2022/04/09 08:26:00;;;;;;;10.30;3.17;;;21.20;69.90;;;;;;5029267;28;20963;-68
2022/04/09 08:28:30;;;;;;;7.10;2.87;;;21.50;69.40;;;;;;5030088;28;20486;-68
2022/04/09 08:30:57;;;;;;;6.60;2.63;;;21.60;68.60;;;;;;5030175;28;20450;-67
2022/04/09 08:33:26;;;;;;;10.37;3.53;;;22.00;68.50;;;;;;5029848;28;20558;-67
2022/04/09 08:35:53;;;;;;;6.87;2.63;;;22.50;68.20;;;;;;5029436;28;20447;-69
2022/04/09 08:38:20;;;;;;;6.20;2.50;;;23.10;67.50;;;;;;5029694;28;20449;-68
2022/04/09 08:40:48;;;;;;;7.23;2.83;;;23.40;66.90;;;;;;5029468;28;20450;-67
2022/04/09 08:43:15;;;;;;;9.23;3.43;;;23.70;65.30;;;;;;5029813;28;20970;-68
2022/04/09 08:45:42;;;;;;;9.80;3.07;;;23.90;63.00;;;;;;5029958;28;20438;-67
2022/04/09 08:48:10;;;;;;;6.23;2.60;;;23.90;61.90;;;;;;5029721;28;20501;-68
2022/04/09 08:50:42;;;;;;;8.30;3.20;;;23.50;62.50;;;;;;5030019;28;20462;-68
2022/04/09 08:53:09;;;;;;;8.03;2.70;;;23.50;63.00;;;;;;5030047;28;20458;-68
2022/04/09 08:55:38;;;;;;;6.57;2.93;;;23.60;62.40;;;;;;5029846;28;20538;-69
2022/04/09 08:58:05;;;;;;;7.50;3.17;;;23.70;60.60;;;;;;5029847;28;20557;-68
2022/04/09 09:00:33;;;;;;;5.33;2.30;;;23.70;60.60;;;;;;5029199;28;20447;-67
2022/04/09 09:03:02;;;;;;;6.00;3.30;;;23.80;60.10;;;;;;5029060;28;20450;-67
2022/04/09 09:05:34;;;;;;;10.57;3.80;;;24.00;59.60;;;;;;5029523;28;20470;-68
2022/04/09 09:08:03;;;;;;;7.20;2.87;;;24.20;59.00;;;;;;5029147;28;20979;-68
2022/04/09 09:10:30;;;;;;;7.30;3.10;;;24.40;58.80;;;;;;5029091;28;20454;-69
2022/04/09 09:12:59;;;;;;;7.17;2.47;;;24.30;57.30;;;;;;5029378;28;20459;-69
2022/04/09 09:15:27;;;;;;;5.50;2.63;;;24.40;56.40;;;;;;5029503;28;20451;-67
2022/04/09 09:17:57;;;;;;;4.93;2.00;;;24.50;56.10;;;;;;5029436;28;20473;-68
2022/04/09 09:20:25;;;;;;;5.50;2.10;;;24.50;56.30;;;;;;5029183;28;20823;-68
2022/04/09 09:22:54;;;;;;;9.50;2.67;;;24.30;56.30;;;;;;5029393;28;20477;-68
2022/04/09 09:25:22;;;;;;;9.60;2.70;;;24.20;56.50;;;;;;5029307;28;20443;-68
2022/04/09 09:27:59;;;;;;;4.63;1.90;;;23.80;55.50;;;;;;5028707;28;20529;-67
2022/04/09 09:30:27;;;;;;;10.53;2.83;;;23.60;56.60;;;;;;5029307;28;20466;-68
2022/04/09 09:33:07;;;;;;;6.60;2.43;;;23.60;56.90;;;;;;5029565;28;20878;-69
2022/04/09 09:35:51;;;;;;;8.40;2.33;;;23.40;57.60;;;;;;5029346;28;20815;-68
2022/04/09 09:38:23;;;;;;;10.80;2.00;;;23.10;56.70;;;;;;5029375;28;20455;-68
2022/04/09 09:40:52;;;;;;;6.10;2.60;;;22.90;57.20;;;;;;5029228;28;20462;-68
2022/04/09 09:43:20;;;;;;;10.10;5.90;;;23.00;57.30;;;;;;5029119;28;20459;-69
2022/04/09 09:45:48;;;;;;;5.80;2.43;;;23.10;56.70;;;;;;5027794;28;20478;-67
2022/04/09 09:48:25;;;;;;;9.50;2.60;;;23.40;57.10;;;;;;5028594;28;20509;-68
2022/04/09 09:50:53;;;;;;;5.40;2.33;;;23.70;56.90;;;;;;5029083;28;20458;-68
2022/04/09 09:53:32;;;;;;;6.27;2.03;;;24.00;56.20;;;;;;5028928;28;20457;-68
2022/04/09 09:56:02;;;;;;;5.07;2.53;;;24.40;55.60;;;;;;5028704;28;20881;-68
2022/04/09 09:58:31;;;;;;;4.80;1.70;;;24.70;54.00;;;;;;5028900;28;20450;-68
2022/04/09 10:00:59;;;;;;;5.50;1.77;;;24.60;50.90;;;;;;5029214;28;20806;-68
2022/04/09 10:03:27;;;;;;;5.70;1.67;;;24.40;51.10;;;;;;5029064;28;20493;-68
2022/04/09 10:05:54;;;;;;;5.77;1.50;;;24.30;52.00;;;;;;5029001;28;20451;-68
2022/04/09 10:08:22;;;;;;;5.30;1.40;;;24.00;51.10;;;;;;5028827;28;20486;-68
2022/04/09 10:10:50;;;;;;;4.73;1.60;;;24.10;51.00;;;;;;5029050;28;20461;-68
2022/04/09 10:13:21;;;;;;;5.47;1.63;;;24.30;50.80;;;;;;5031715;28;20450;-68
2022/04/09 10:15:50;;;;;;;6.13;1.40;;;24.60;51.80;;;;;;5032592;28;20487;-69
2022/04/09 10:18:24;;;;;;;4.57;1.60;;;24.40;50.20;;;;;;5032241;28;20513;-69
2022/04/09 10:20:58;;;;;;;7.30;1.97;;;24.30;50.10;;;;;;5032262;28;20963;-68
2022/04/09 10:23:27;;;;;;;6.60;2.87;;;24.00;49.40;;;;;;5032266;28;20450;-68
2022/04/09 10:25:54;;;;;;;6.37;1.90;;;23.60;49.10;;;;;;5032286;28;20488;-66
2022/04/09 10:28:34;;;;;;;3.53;1.23;;;23.70;49.80;;;;;;5031801;28;20493;-68
2022/04/09 10:31:01;;;;;;;5.57;1.63;;;23.50;50.00;;;;;;5032345;28;20497;-68
2022/04/09 10:33:36;;;;;;;4.33;1.40;;;23.50;49.80;;;;;;5032078;28;20458;-68
2022/04/09 10:36:04;;;;;;;5.43;1.20;;;23.60;49.80;;;;;;5032254;28;20572;-69
2022/04/09 10:38:33;;;;;;;6.47;2.17;;;23.50;49.80;;;;;;5032150;28;20830;-67
2022/04/09 10:41:33;;;;;;;4.00;1.23;;;23.10;50.50;;;;;;5032172;28;20941;-68
2022/04/09 10:44:02;;;;;;;5.40;1.40;;;23.10;50.40;;;;;;5031922;28;20454;-67
2022/04/09 10:46:35;;;;;;;5.80;2.00;;;23.40;50.90;;;;;;5031874;28;21029;-68
2022/04/09 10:49:22;;;;;;;4.23;1.30;;;23.70;51.00;;;;;;5031406;28;20494;-67
2022/04/09 10:52:14;;;;;;;5.63;1.70;;;24.10;50.50;;;;;;5031880;28;20829;-68
2022/04/09 10:54:56;;;;;;;5.70;1.30;;;24.20;49.90;;;;;;5031446;28;20554;-67
2022/04/09 10:57:25;;;;;;;4.70;1.67;;;23.90;49.90;;;;;;5018932;28;20479;-66
2022/04/09 11:00:09;;;;;;;4.90;1.43;;;24.00;50.70;;;;;;5031697;28;20470;-67
2022/04/09 11:02:36;;;;;;;9.10;1.33;;;24.20;51.00;;;;;;5031495;28;20485;-67
2022/04/09 11:05:21;;;;;;;7.93;1.47;;;24.50;50.50;;;;;;5031587;28;20542;-69
2022/04/09 11:08:08;;;;;;;3.87;1.47;;;24.20;50.00;;;;;;5031447;28;20573;-69
2022/04/09 11:10:35;;;;;;;4.67;1.50;;;24.10;50.20;;;;;;5031684;28;20466;-67
2022/04/09 11:13:03;;;;;;;4.07;1.37;;;24.20;49.60;;;;;;5031170;28;20931;-67
2022/04/09 11:15:31;;;;;;;4.00;1.20;;;24.30;49.80;;;;;;5031472;28;20566;-67
2022/04/09 11:18:02;;;;;;;6.23;1.30;;;24.30;49.00;;;;;;5031175;28;20529;-67
2022/04/09 11:20:32;;;;;;;6.33;2.90;;;24.40;49.10;;;;;;5031439;28;20447;-68
2022/04/09 11:23:08;;;;;;;5.70;1.87;;;24.40;49.40;;;;;;5030900;28;20451;-68
2022/04/09 11:25:35;;;;;;;4.27;1.50;;;24.40;48.20;;;;;;5030966;28;20923;-68
2022/04/09 11:28:07;;;;;;;6.17;2.10;;;24.30;48.80;;;;;;5030839;28;20490;-69
2022/04/09 11:30:35;;;;;;;7.70;2.10;;;23.90;48.80;;;;;;5031401;28;20950;-69
2022/04/09 11:33:02;;;;;;;4.60;1.50;;;23.80;49.40;;;;;;5031292;28;20457;-69
2022/04/09 11:35:34;;;;;;;4.80;1.83;;;23.70;49.80;;;;;;5030576;28;20450;-69
2022/04/09 11:38:02;;;;;;;5.07;1.60;;;24.00;50.30;;;;;;5030521;28;20478;-68
2022/04/09 11:40:29;;;;;;;4.40;1.60;;;24.00;49.00;;;;;;5030863;28;20447;-68
2022/04/09 11:42:57;;;;;;;4.30;1.53;;;24.10;48.70;;;;;;5030942;28;20505;-68
2022/04/09 11:45:26;;;;;;;5.83;1.70;;;24.10;47.80;;;;;;5031005;28;20451;-69
2022/04/09 11:47:57;;;;;;;7.37;1.50;;;24.30;47.50;;;;;;5030593;28;20506;-68
2022/04/09 11:50:25;;;;;;;4.63;1.70;;;24.50;47.10;;;;;;5030626;28;20556;-67
2022/04/09 11:52:52;;;;;;;4.93;1.70;;;24.30;45.60;;;;;;5030701;28;20465;-68
2022/04/09 11:55:20;;;;;;;6.30;1.60;;;24.00;45.30;;;;;;5030787;28;20509;-67
2022/04/09 11:57:52;;;;;;;7.40;1.90;;;24.00;46.10;;;;;;5030597;28;20506;-68
2022/04/09 12:00:20;;;;;;;4.37;1.20;;;24.00;45.40;;;;;;5030611;28;21012;-68
2022/04/09 12:02:47;;;;;;;5.60;1.37;;;23.80;44.30;;;;;;5030506;28;20909;-68
2022/04/09 12:05:16;;;;;;;6.90;1.30;;;23.50;44.20;;;;;;5030704;28;20455;-67
2022/04/09 12:07:45;;;;;;;5.00;1.33;;;23.50;44.50;;;;;;5030281;28;20498;-68
2022/04/09 12:10:23;;;;;;;5.60;1.43;;;23.50;44.80;;;;;;5030371;28;20922;-68
2022/04/09 12:12:56;;;;;;;5.50;1.73;;;23.70;43.40;;;;;;5030365;28;20542;-68
2022/04/09 12:15:31;;;;;;;6.20;1.40;;;23.60;43.30;;;;;;5030329;28;20541;-69
2022/04/09 12:17:59;;;;;;;4.10;1.37;;;23.80;43.70;;;;;;5029894;28;20473;-68
2022/04/09 12:20:35;;;;;;;5.23;1.67;;;23.70;42.80;;;;;;5030161;28;20451;-66
2022/04/09 12:23:03;;;;;;;7.50;1.87;;;23.90;43.10;;;;;;5030220;28;20454;-68
2022/04/09 12:25:35;;;;;;;4.70;1.40;;;23.90;41.10;;;;;;5030156;28;20458;-67
2022/04/09 12:28:03;;;;;;;4.90;1.83;;;23.60;40.50;;;;;;5029688;28;20944;-68
2022/04/09 12:30:41;;;;;;;6.40;1.63;;;23.60;41.70;;;;;;5029878;28;20455;-68
2022/04/09 12:33:10;;;;;;;4.07;1.30;;;23.60;40.90;;;;;;5029998;28;20468;-69
2022/04/09 12:35:39;;;;;;;7.63;1.97;;;23.50;40.90;;;;;;5029445;28;20533;-69
2022/04/09 12:38:07;;;;;;;6.30;1.30;;;23.40;41.00;;;;;;5029988;28;20473;-69
2022/04/09 12:40:34;;;;;;;4.53;1.63;;;23.60;40.80;;;;;;5029890;28;20538;-69
2022/04/09 12:43:03;;;;;;;4.00;1.30;;;23.70;40.60;;;;;;5029563;28;20459;-68
2022/04/09 12:45:30;;;;;;;5.00;1.43;;;24.00;40.40;;;;;;5029705;28;20546;-68
2022/04/09 12:47:58;;;;;;;6.07;1.40;;;24.00;39.90;;;;;;5029163;28;20545;-69
2022/04/09 12:50:27;;;;;;;6.03;1.60;;;24.10;40.10;;;;;;5029647;28;20447;-70
2022/04/09 12:52:57;;;;;;;4.53;1.43;;;24.10;40.60;;;;;;5029222;28;20458;-70